Time;durP1;ratioP1;P1;durP2;ratioP2;P2;SDS_P1;SDS_P2;PMS_P1;PMS_P2;Temp;Humidity;BMP_temperature;BMP_pressure;BME280_temperature;BME280_humidity;BME280_pressure;Samples;Min_cycle;Max_cycle;Signal;HPM_P1;HPM_P2
2023/02/28 00:00:55;;;;;;;17.45;10.68;;;;;;;9.22;74.96;96961.00;6156604;23;20017;-63
2023/02/28 00:03:24;;;;;;;18.63;11.18;;;;;;;9.15;75.41;96961.22;6158155;23;20479;-62
2023/02/28 00:05:51;;;;;;;15.27;9.32;;;;;;;9.16;75.38;96958.56;6157862;23;20028;-63
2023/02/28 00:08:18;;;;;;;17.45;10.48;;;;;;;9.14;75.71;96962.94;6158313;23;20030;-63
2023/02/28 00:10:45;;;;;;;13.35;9.60;;;;;;;9.09;75.82;96972.63;6157825;23;20045;-62
2023/02/28 00:13:13;;;;;;;17.83;10.95;;;;;;;9.07;76.17;96969.22;6158134;23;20021;-62
2023/02/28 00:15:40;;;;;;;21.50;11.20;;;;;;;9.07;76.09;96975.31;6157660;23;20021;-64
2023/02/28 00:18:07;;;;;;;14.82;10.10;;;;;;;9.11;76.20;96970.84;6157593;23;20021;-62
2023/02/28 00:20:35;;;;;;;16.67;10.75;;;;;;;9.13;75.96;96973.44;6158043;23;20029;-62
2023/02/28 00:23:03;;;;;;;14.20;9.93;;;;;;;9.19;76.02;96971.53;6158114;23;20021;-62
2023/02/28 00:25:30;;;;;;;23.00;10.50;;;;;;;9.26;75.61;96969.59;6157689;23;20462;-63
2023/02/28 00:27:57;;;;;;;16.15;10.60;;;;;;;9.33;75.68;96963.31;6157999;23;20022;-62
2023/02/28 00:30:24;;;;;;;12.93;9.45;;;;;;;9.35;75.57;96956.31;6157887;23;20032;-62
2023/02/28 00:32:52;;;;;;;17.80;9.73;;;;;;;9.42;75.21;96954.38;6157696;23;20024;-62
2023/02/28 00:35:19;;;;;;;17.25;9.88;;;;;;;9.52;74.95;96960.25;6157971;23;20076;-61
2023/02/28 00:37:49;;;;;;;17.30;9.73;;;;;;;9.57;74.44;96950.50;6157554;23;20052;-63
2023/02/28 00:40:16;;;;;;;18.15;10.23;;;;;;;9.68;74.37;96950.22;6157568;23;20396;-62
2023/02/28 00:42:43;;;;;;;17.02;9.98;;;;;;;9.72;73.99;96958.81;6157434;23;20026;-63
2023/02/28 00:45:11;;;;;;;21.83;10.38;;;;;;;9.75;74.33;96957.91;6157780;23;20107;-63
2023/02/28 00:47:38;;;;;;;20.63;10.45;;;;;;;9.70;74.71;96960.63;6157803;23;20018;-62
2023/02/28 00:50:06;;;;;;;18.42;9.38;;;;;;;9.72;74.45;96949.22;6157691;23;20025;-63
2023/02/28 00:52:34;;;;;;;16.88;9.40;;;;;;;9.77;74.27;96948.25;6157239;23;20021;-62
2023/02/28 00:55:02;;;;;;;13.80;9.98;;;;;;;9.75;74.46;96944.84;6157352;23;20049;-63
2023/02/28 00:57:30;;;;;;;18.05;9.95;;;;;;;9.81;74.62;96971.63;6157702;23;20072;-63
2023/02/28 00:59:57;;;;;;;17.52;9.98;;;;;;;9.86;74.71;96967.13;6157304;23;20072;-62
2023/02/28 01:02:24;;;;;;;15.60;8.93;;;;;;;9.94;74.28;96974.75;6158048;23;20026;-62
2023/02/28 01:04:51;;;;;;;16.70;9.98;;;;;;;9.97;73.91;96973.81;6157269;23;20033;-62
2023/02/28 01:07:19;;;;;;;22.13;9.98;;;;;;;9.99;74.45;96977.22;6157571;23;20056;-63
2023/02/28 01:09:46;;;;;;;26.58;10.15;;;;;;;10.02;74.42;96981.53;6157641;23;20085;-62
2023/02/28 01:12:15;;;;;;;17.90;9.88;;;;;;;10.09;74.49;96972.59;6156524;23;20068;-62
2023/02/28 01:14:42;;;;;;;18.38;10.27;;;;;;;10.18;73.89;96982.78;6157718;23;20105;-63
2023/02/28 01:17:09;;;;;;;17.27;10.23;;;;;;;10.23;73.51;96993.09;6157032;23;20388;-63
2023/02/28 01:19:37;;;;;;;19.92;9.55;;;;;;;10.28;73.22;96996.44;6157576;23;20021;-62
2023/02/28 01:22:05;;;;;;;16.92;9.48;;;;;;;10.31;72.84;97001.59;6157467;23;20380;-63
2023/02/28 01:24:32;;;;;;;21.25;10.07;;;;;;;10.20;73.16;96993.19;6157123;23;20053;-63
2023/02/28 01:27:00;;;;;;;16.15;9.80;;;;;;;10.21;73.18;96997.53;6156969;23;20527;-63
2023/02/28 01:29:28;;;;;;;17.75;10.40;;;;;;;10.15;73.14;96987.25;6157091;23;20022;-62
2023/02/28 01:31:56;;;;;;;15.00;10.20;;;;;;;10.04;74.00;96991.03;6156961;23;20029;-62
2023/02/28 01:34:23;;;;;;;17.77;10.45;;;;;;;9.83;75.14;96995.09;6157016;23;20028;-62
2023/02/28 01:36:50;;;;;;;33.17;12.57;;;;;;;9.83;76.47;97008.16;6157250;23;20025;-63
2023/02/28 01:39:18;;;;;;;24.60;12.48;;;;;;;9.73;78.36;97013.63;6157588;23;20084;-62
2023/02/28 01:41:46;;;;;;;22.55;12.48;;;;;;;9.62;78.82;97007.84;6156934;23;20031;-63
2023/02/28 01:44:50;;;;;;;21.98;12.80;;;;;;;9.48;79.64;97013.44;6157041;23;20029;-63
2023/02/28 01:47:19;;;;;;;25.45;13.25;;;;;;;9.36;80.56;97012.00;6157185;23;20021;-62
2023/02/28 01:49:46;;;;;;;23.92;12.73;;;;;;;9.30;80.78;97004.34;6157207;23;20022;-62
2023/02/28 01:52:17;;;;;;;21.17;13.60;;;;;;;9.23;81.60;97019.28;6157261;23;20479;-62
2023/02/28 01:54:51;;;;;;;24.30;13.35;;;;;;;9.23;81.61;97030.59;6157404;23;20022;-62
2023/02/28 01:57:21;;;;;;;24.50;12.75;;;;;;;9.21;81.60;97029.75;6156765;23;20026;-62
2023/02/28 01:59:53;;;;;;;23.23;13.57;;;;;;;9.22;81.74;97028.03;6156811;23;20068;-62
2023/02/28 02:02:24;;;;;;;20.80;13.10;;;;;;;9.18;81.64;97035.06;6156781;23;20101;-62
2023/02/28 02:04:55;;;;;;;22.88;14.02;;;;;;;9.23;81.64;97033.22;6157319;23;20031;-62
2023/02/28 02:07:24;;;;;;;22.98;13.52;;;;;;;9.21;81.14;97027.16;6156794;23;20518;-63
2023/02/28 02:09:51;;;;;;;30.92;14.15;;;;;;;9.25;80.86;97027.94;6157114;23;20018;-62
2023/02/28 02:12:31;;;;;;;22.33;13.90;;;;;;;9.23;80.82;97021.91;6157038;23;20022;-62
2023/02/28 02:15:07;;;;;;;26.63;14.23;;;;;;;9.15;81.16;97023.84;6156926;23;20100;-63
2023/02/28 02:17:40;;;;;;;21.15;13.90;;;;;;;9.12;81.59;97026.53;6156391;23;20036;-62
2023/02/28 02:20:47;;;;;;;28.23;13.60;;;;;;;9.00;81.75;97019.88;6156654;23;20392;-62
2023/02/28 02:23:49;;;;;;;25.25;13.27;;;;;;;8.91;82.27;97018.34;6156506;23;20086;-62
2023/02/28 02:26:45;;;;;;;25.58;13.50;;;;;;;8.86;82.37;97023.66;6134376;23;20025;-62
2023/02/28 02:29:45;;;;;;;29.17;13.43;;;;;;;8.88;82.47;97042.72;6156713;23;20068;-63
2023/02/28 02:32:46;;;;;;;25.20;13.17;;;;;;;8.85;82.65;97037.56;6156730;23;20021;-62
2023/02/28 02:35:19;;;;;;;21.50;12.43;;;;;;;8.78;83.02;97039.47;6157007;23;20278;-62
2023/02/28 02:37:52;;;;;;;21.88;13.30;;;;;;;8.72;83.16;97039.63;6156325;23;20022;-62
2023/02/28 02:40:22;;;;;;;17.13;12.32;;;;;;;8.66;83.22;97035.41;6156271;23;20037;-62
2023/02/28 02:42:56;;;;;;;23.40;12.40;;;;;;;8.62;83.28;97038.09;6156626;23;20092;-62
2023/02/28 02:45:28;;;;;;;28.05;12.00;;;;;;;8.58;83.59;97029.50;6156242;23;20456;-62
2023/02/28 02:48:00;;;;;;;24.48;12.63;;;;;;;8.54;83.24;97022.63;6156564;23;20337;-61
2023/02/28 02:50:35;;;;;;;19.20;12.57;;;;;;;8.58;83.08;97034.72;6156894;23;20017;-62
2023/02/28 02:53:04;;;;;;;21.38;12.02;;;;;;;8.60;82.78;97038.13;6156383;23;20021;-62
2023/02/28 02:55:35;;;;;;;22.13;12.70;;;;;;;8.55;82.86;97040.84;6156158;23;20057;-62
2023/02/28 02:58:04;;;;;;;;;;;;;;;8.48;82.93;97049.66;6157015;23;20456;-62
2023/02/28 03:00:35;;;;;;;24.20;12.50;;;;;;;8.37;83.44;97052.47;6156135;23;20335;-62
2023/02/28 03:03:03;;;;;;;22.67;11.65;;;;;;;8.39;83.45;97049.84;6156004;23;20463;-62
2023/02/28 03:05:37;;;;;;;21.08;12.32;;;;;;;8.27;83.19;97059.66;6156133;23;20021;-62
2023/02/28 03:08:06;;;;;;;20.73;11.90;;;;;;;8.28;82.86;97060.53;6156127;23;20029;-62
2023/02/28 03:10:37;;;;;;;19.10;11.48;;;;;;;8.30;83.00;97056.97;6156095;23;20456;-62
2023/02/28 03:13:18;;;;;;;20.27;11.32;;;;;;;8.32;82.88;97063.03;6156106;23;20018;-62
2023/02/28 03:15:59;;;;;;;18.58;10.80;;;;;;;8.25;82.84;97069.25;6156038;23;20381;-62
2023/02/28 03:18:33;;;;;;;12.07;8.07;;;;;;;8.28;82.92;97070.94;6156407;23;20022;-62
2023/02/28 03:21:15;;;;;;;20.65;10.90;;;;;;;8.29;82.51;97070.91;6156409;23;20024;-62
2023/02/28 03:23:49;;;;;;;16.38;10.13;;;;;;;8.33;82.49;97069.09;6156110;23;20044;-63
2023/02/28 03:26:22;;;;;;;20.67;10.85;;;;;;;8.32;82.32;97073.47;6156465;23;20057;-62
2023/02/28 03:28:56;;;;;;;24.73;10.85;;;;;;;8.36;81.90;97087.28;6155975;23;20456;-62
2023/02/28 03:31:31;;;;;;;24.33;10.65;;;;;;;8.32;81.92;97093.44;6155845;23;20344;-62
2023/02/28 03:34:08;;;;;;;17.52;10.68;;;;;;;8.33;81.57;97080.38;6156290;23;20022;-62
2023/02/28 03:36:43;;;;;;;18.27;9.75;;;;;;;8.30;81.92;97083.06;6155875;23;20056;-63
2023/02/28 03:39:15;;;;;;;16.75;10.20;;;;;;;8.29;81.79;97077.88;6156397;23;20022;-62
2023/02/28 03:41:49;;;;;;;20.58;10.43;;;;;;;8.18;82.33;97089.38;6156556;23;20091;-62
2023/02/28 03:44:19;;;;;;;23.75;10.70;;;;;;;8.20;82.18;97094.56;6156356;23;20072;-62
2023/02/28 03:46:54;;;;;;;10.88;7.50;;;;;;;8.13;82.28;97093.78;6156342;23;20052;-62
2023/02/28 03:49:26;;;;;;;19.98;10.15;;;;;;;8.18;82.08;97098.91;6155883;23;20468;-62
2023/02/28 03:51:59;;;;;;;15.00;10.35;;;;;;;8.14;82.02;97105.97;6155828;23;20022;-62
2023/02/28 03:54:32;;;;;;;22.90;9.90;;;;;;;8.13;82.23;97111.19;6155833;23;20053;-62
2023/02/28 03:57:04;;;;;;;19.38;10.73;;;;;;;8.06;82.06;97103.50;6156153;23;20025;-62
2023/02/28 03:59:38;;;;;;;26.70;10.50;;;;;;;8.02;82.32;97106.19;6155899;23;20032;-62
2023/02/28 04:02:05;;;;;;;17.48;9.98;;;;;;;7.95;82.58;97105.44;6156323;23;20096;-62
2023/02/28 04:04:32;;;;;;;20.63;9.98;;;;;;;7.95;82.82;97105.44;6155874;23;20028;-62
2023/02/28 04:07:08;;;;;;;20.23;10.55;;;;;;;7.92;82.80;97114.16;6156174;23;20022;-62
2023/02/28 04:09:36;;;;;;;15.48;9.55;;;;;;;7.94;82.56;97116.75;6155977;23;20028;-62
2023/02/28 04:12:03;;;;;;;14.23;10.25;;;;;;;7.96;82.16;97121.06;6156417;23;20029;-63
2023/02/28 04:14:31;;;;;;;16.95;11.43;;;;;;;7.97;81.03;97116.69;6155786;23;20388;-62
2023/02/28 04:16:58;;;;;;;22.60;11.05;;;;;;;7.95;81.05;97123.69;6155642;23;20029;-62
2023/02/28 04:19:25;;;;;;;17.48;10.52;;;;;;;7.91;81.57;97127.22;6155887;23;20026;-62
2023/02/28 04:21:54;;;;;;;15.43;9.82;;;;;;;7.92;81.52;97121.97;6156228;23;20028;-62
2023/02/28 04:24:24;;;;;;;15.68;9.93;;;;;;;7.89;81.49;97122.03;6155833;23;20022;-63
2023/02/28 04:26:52;;;;;;;16.55;9.80;;;;;;;7.83;81.82;97123.00;6155763;23;20097;-62
2023/02/28 04:29:26;;;;;;;16.13;9.88;;;;;;;7.82;81.59;97123.91;6156243;23;20060;-62
2023/02/28 04:31:54;;;;;;;15.75;9.73;;;;;;;7.80;81.48;97128.25;6155907;23;20057;-62
2023/02/28 04:34:23;;;;;;;12.55;8.07;;;;;;;7.78;81.67;97129.19;6156018;23;20070;-62
2023/02/28 04:36:53;;;;;;;17.98;9.98;;;;;;;7.83;81.38;97135.19;6156118;23;20029;-62
2023/02/28 04:39:25;;;;;;;16.02;9.00;;;;;;;7.83;81.26;97123.00;6155730;23;20022;-62
2023/02/28 04:41:52;;;;;;;13.00;9.38;;;;;;;7.86;81.03;97132.53;6155967;23;20403;-62
2023/02/28 04:44:20;;;;;;;15.50;9.13;;;;;;;7.88;80.99;97125.53;6155718;23;20025;-62
2023/02/28 04:46:50;;;;;;;19.58;9.73;;;;;;;7.93;80.98;97136.75;6156255;23;20100;-62
2023/02/28 04:49:17;;;;;;;9.75;6.93;;;;;;;8.02;80.44;97127.03;6157868;23;20057;-63
2023/02/28 04:51:44;;;;;;;16.38;9.30;;;;;;;8.06;80.22;97134.75;6157967;23;20021;-62
2023/02/28 04:54:13;;;;;;;16.88;9.38;;;;;;;8.04;80.10;97131.31;6157868;23;20336;-64
2023/02/28 04:56:42;;;;;;;17.42;10.07;;;;;;;8.15;79.79;97132.84;6157465;23;20096;-62
2023/02/28 04:59:09;;;;;;;16.55;9.30;;;;;;;8.11;79.44;97139.03;6157325;23;20397;-62
2023/02/28 05:01:37;;;;;;;13.57;8.85;;;;;;;8.14;79.30;97145.06;6157704;23;20519;-62
2023/02/28 05:04:05;;;;;;;13.02;8.38;;;;;;;8.15;78.66;97157.19;6157675;23;20343;-63
2023/02/28 05:06:35;;;;;;;19.63;8.68;;;;;;;8.17;78.56;97163.25;6157099;23;20322;-62
2023/02/28 05:09:03;;;;;;;12.57;8.82;;;;;;;8.14;78.55;97158.09;6157346;23;20025;-62
2023/02/28 05:11:34;;;;;;;21.27;9.77;;;;;;;8.06;78.65;97154.75;6157192;23;20456;-62
2023/02/28 05:14:04;;;;;;;16.50;8.32;;;;;;;8.02;78.73;97153.94;6157430;23;20068;-62
2023/02/28 05:16:33;;;;;;;19.83;9.25;;;;;;;7.95;78.69;97157.56;6156872;23;20032;-62
2023/02/28 05:19:00;;;;;;;13.60;9.20;;;;;;;7.89;78.92;97160.25;6157015;23;20024;-63
2023/02/28 05:21:30;;;;;;;13.85;8.77;;;;;;;7.78;79.54;97163.91;6156972;23;20060;-62
2023/02/28 05:23:58;;;;;;;15.73;10.43;;;;;;;7.71;80.27;97165.75;6157206;23;20487;-62
2023/02/28 05:26:27;;;;;;;14.75;9.55;;;;;;;7.75;80.42;97171.78;6157668;23;20492;-62
2023/02/28 05:28:56;;;;;;;15.25;7.82;;;;;;;7.76;79.65;97168.28;6157370;23;20022;-62
2023/02/28 05:31:25;;;;;;;11.90;7.78;;;;;;;7.71;79.04;97173.56;6157492;23;20022;-62
2023/02/28 05:33:52;;;;;;;11.45;8.15;;;;;;;7.58;78.84;97175.50;6157656;23;20018;-62
2023/02/28 05:36:20;;;;;;;16.75;8.20;;;;;;;7.46;78.57;97178.28;6157163;23;20057;-62
2023/02/28 05:38:48;;;;;;;16.25;8.52;;;;;;;7.40;79.36;97187.06;6157386;23;20080;-62
2023/02/28 05:41:16;;;;;;;15.85;8.20;;;;;;;7.41;78.87;97193.97;6157525;23;20017;-62
2023/02/28 05:43:44;;;;;;;14.77;8.43;;;;;;;7.45;78.61;97194.81;6157263;23;20017;-62
2023/02/28 05:46:13;;;;;;;12.57;8.38;;;;;;;7.38;78.85;97198.38;6157290;23;20114;-62
2023/02/28 05:48:44;;;;;;;10.48;7.90;;;;;;;7.30;78.73;97204.56;6156890;23;20076;-62
2023/02/28 05:51:11;;;;;;;17.42;7.90;;;;;;;7.21;79.34;97199.50;6157234;23;20018;-62
2023/02/28 05:53:39;;;;;;;18.05;8.20;;;;;;;7.27;79.19;97216.75;6156778;23;20045;-63
2023/02/28 05:56:07;;;;;;;14.35;7.47;;;;;;;7.24;79.08;97203.78;6156842;23;20021;-62
2023/02/28 05:58:34;;;;;;;19.40;8.45;;;;;;;7.15;79.59;97213.44;6156469;23;20029;-62
2023/02/28 06:01:20;;;;;;;15.15;7.78;;;;;;;7.13;79.73;97211.75;6156506;23;20084;-62
2023/02/28 06:03:49;;;;;;;14.27;7.72;;;;;;;7.17;79.78;97218.63;6156679;23;20018;-62
2023/02/28 06:06:16;;;;;;;14.13;8.70;;;;;;;7.16;79.89;97217.75;6156692;23;20405;-62
2023/02/28 06:08:45;;;;;;;19.02;7.68;;;;;;;7.19;79.82;97222.06;6156711;23;20044;-61
2023/02/28 06:11:13;;;;;;;17.02;8.40;;;;;;;7.21;79.66;97220.31;6156667;23;20076;-62
2023/02/28 06:13:40;;;;;;;19.92;8.95;;;;;;;7.19;79.50;97222.94;6156670;23;20024;-62
2023/02/28 06:16:08;;;;;;;13.32;8.88;;;;;;;7.17;79.47;97222.06;6156415;23;20017;-62
2023/02/28 06:18:36;;;;;;;13.63;7.88;;;;;;;7.11;80.13;97232.59;6156909;23;20060;-62
2023/02/28 06:21:05;;;;;;;15.45;8.23;;;;;;;7.04;80.28;97226.59;6157043;23;20097;-62
2023/02/28 06:23:33;;;;;;;24.52;9.88;;;;;;;7.07;80.51;97218.75;6156489;23;20029;-62
2023/02/28 06:26:00;;;;;;;22.95;9.95;;;;;;;7.03;80.60;97221.41;6156552;23;20021;-62
2023/02/28 06:28:31;;;;;;;17.00;9.32;;;;;;;7.02;80.85;97215.34;6156643;23;20033;-62
2023/02/28 06:30:58;;;;;;;13.82;8.68;;;;;;;7.01;80.85;97216.22;6156506;23;20385;-63
2023/02/28 06:33:26;;;;;;;21.00;9.75;;;;;;;7.02;80.98;97222.28;6156405;23;20049;-63
2023/02/28 06:35:53;;;;;;;17.35;8.55;;;;;;;7.02;81.11;97225.78;6156395;23;20333;-62
2023/02/28 06:38:22;;;;;;;19.35;9.13;;;;;;;7.09;80.83;97234.34;6156246;23;20021;-62
2023/02/28 06:40:55;;;;;;;15.50;8.27;;;;;;;7.02;80.53;97241.38;6156813;23;20017;-62
2023/02/28 06:43:22;;;;;;;14.63;8.88;;;;;;;7.00;80.56;97248.34;6156816;23;20021;-62
2023/02/28 06:45:50;;;;;;;19.05;8.70;;;;;;;6.94;80.96;97240.59;6156234;23;20025;-62
2023/02/28 06:48:17;;;;;;;15.93;8.60;;;;;;;6.89;81.41;97239.81;6156597;23;20088;-62
2023/02/28 06:50:45;;;;;;;15.02;8.75;;;;;;;6.94;81.37;97238.00;6156404;23;20045;-62
2023/02/28 06:53:12;;;;;;;14.40;8.30;;;;;;;6.82;81.24;97249.41;6156276;23;20415;-62
2023/02/28 06:55:41;;;;;;;24.23;9.63;;;;;;;6.78;81.68;97251.19;6156262;23;20024;-62
2023/02/28 06:58:14;;;;;;;13.50;9.95;;;;;;;6.75;82.21;97250.34;6156408;23;20029;-62
2023/02/28 07:00:42;;;;;;;19.50;10.13;;;;;;;6.78;82.11;97250.31;6156345;23;20456;-62
2023/02/28 07:03:09;;;;;;;21.13;10.05;;;;;;;6.77;82.23;97253.81;6156097;23;20018;-62
2023/02/28 07:05:37;;;;;;;21.42;9.57;;;;;;;6.76;81.94;97262.47;6156241;23;20021;-63
2023/02/28 07:08:06;;;;;;;15.10;9.23;;;;;;;6.68;82.30;97260.81;6156224;23;20523;-62
2023/02/28 07:10:34;;;;;;;15.23;9.38;;;;;;;6.65;82.38;97253.06;6156306;23;20400;-62
2023/02/28 07:13:05;;;;;;;16.77;9.45;;;;;;;6.62;82.44;97247.03;6156279;23;20018;-62
2023/02/28 07:15:32;;;;;;;;;;;;;;;6.54;83.01;97247.97;6156548;23;20049;-62
2023/02/28 07:17:59;;;;;;;12.98;9.00;;;;;;;6.53;83.64;97259.25;6155827;23;20251;-63
2023/02/28 07:20:27;;;;;;;14.15;8.65;;;;;;;6.52;83.76;97249.72;6156123;23;20464;-62
2023/02/28 07:22:56;;;;;;;17.98;10.30;;;;;;;6.53;83.89;97251.44;6156441;23;20021;-62
2023/02/28 07:25:25;;;;;;;23.50;10.38;;;;;;;6.56;83.93;97254.00;6156037;23;20021;-62
2023/02/28 07:27:52;;;;;;;18.38;10.75;;;;;;;6.62;84.22;97252.25;6156589;23;20021;-62
2023/02/28 07:30:24;;;;;;;23.35;10.40;;;;;;;6.62;84.02;97262.66;6156401;23;20024;-62
2023/02/28 07:32:52;;;;;;;21.33;9.32;;;;;;;6.58;84.81;97259.19;6155914;23;20024;-62
2023/02/28 07:35:19;;;;;;;20.75;10.70;;;;;;;6.61;84.82;97255.69;6156416;23;20044;-63
2023/02/28 07:37:47;;;;;;;21.35;10.93;;;;;;;6.57;84.98;97268.72;6156247;23;20044;-62
2023/02/28 07:40:17;;;;;;;17.80;10.48;;;;;;;6.53;85.21;97261.84;6156173;23;20076;-62
2023/02/28 07:42:45;;;;;;;15.88;7.93;;;;;;;6.53;85.39;97268.81;6156040;23;20029;-62
2023/02/28 07:45:12;;;;;;;19.15;10.57;;;;;;;6.53;85.15;97269.63;6156525;23;20076;-62
2023/02/28 07:47:43;;;;;;;20.17;9.85;;;;;;;6.53;85.65;97261.84;6156318;23;20060;-62
2023/02/28 07:50:13;;;;;;;20.50;11.80;;;;;;;6.50;85.74;97271.44;6156045;23;20021;-62
2023/02/28 07:52:41;;;;;;;18.87;11.43;;;;;;;6.51;85.84;97268.81;6156015;23;20069;-63
2023/02/28 07:55:10;;;;;;;23.98;11.15;;;;;;;6.47;85.92;97261.91;6155820;23;20029;-62
2023/02/28 07:57:38;;;;;;;22.23;10.80;;;;;;;6.48;86.38;97263.66;6155715;23;20401;-62
2023/02/28 08:00:09;;;;;;;17.40;10.73;;;;;;;6.45;86.48;97259.31;6156583;23;20085;-62
2023/02/28 08:02:36;;;;;;;18.02;10.57;;;;;;;6.41;86.81;97257.63;6156208;23;20021;-62
2023/02/28 08:05:07;;;;;;;25.63;12.50;;;;;;;6.40;87.14;97255.03;6155876;23;20028;-62
2023/02/28 08:07:34;;;;;;;18.30;11.65;;;;;;;6.35;87.19;97262.88;6155936;23;20022;-62
2023/02/28 08:10:01;;;;;;;28.85;11.98;;;;;;;6.40;87.54;97255.91;6155677;23;20109;-62
2023/02/28 08:12:28;;;;;;;21.33;12.25;;;;;;;6.40;87.48;97260.25;6156176;23;20018;-60
2023/02/28 08:14:56;;;;;;;20.75;11.95;;;;;;;6.40;87.78;97257.66;6155755;23;20021;-63
2023/02/28 08:17:23;;;;;;;26.10;11.80;;;;;;;6.48;87.73;97260.16;6155752;23;20022;-62
2023/02/28 08:19:50;;;;;;;18.63;11.02;;;;;;;6.52;87.53;97260.13;6155733;23;20400;-62
2023/02/28 08:22:19;;;;;;;21.23;13.10;;;;;;;6.52;87.59;97264.47;6156672;23;20021;-62
2023/02/28 08:24:46;;;;;;;21.80;12.10;;;;;;;6.43;88.03;97266.28;6158348;23;20531;-62
2023/02/28 08:27:14;;;;;;;23.13;11.65;;;;;;;6.39;88.02;97271.53;6157659;23;20456;-62
2023/02/28 08:29:42;;;;;;;20.80;13.52;;;;;;;6.34;88.31;97268.97;6157519;23;20022;-62
2023/02/28 08:32:09;;;;;;;22.75;12.38;;;;;;;6.35;89.05;97268.06;6157814;23;20021;-63
2023/02/28 08:34:38;;;;;;;22.85;13.88;;;;;;;6.43;89.37;97268.00;6157921;23;20029;-62
2023/02/28 08:37:06;;;;;;;19.98;13.07;;;;;;;6.53;88.37;97274.00;6157400;23;20076;-62
2023/02/28 08:39:37;;;;;;;28.98;12.10;;;;;;;6.55;87.90;97280.91;6157422;23;20022;-62
2023/02/28 08:42:06;;;;;;;26.33;12.88;;;;;;;6.55;86.94;97275.69;6157813;23;20491;-62
2023/02/28 08:44:33;;;;;;;28.30;11.50;;;;;;;6.59;86.72;97284.31;6157731;23;20397;-62
2023/02/28 08:47:01;;;;;;;23.50;12.25;;;;;;;6.50;86.77;97281.81;6157286;23;20021;-62
2023/02/28 08:49:29;;;;;;;20.60;11.73;;;;;;;6.36;87.51;97276.75;6157492;23;20025;-62
2023/02/28 08:51:57;;;;;;;28.50;13.20;;;;;;;6.35;88.12;97268.06;6158024;23;20025;-62
2023/02/28 08:54:24;;;;;;;28.95;11.82;;;;;;;6.44;88.26;97278.41;6157248;23;20033;-62
2023/02/28 08:56:53;;;;;;;19.95;13.13;;;;;;;6.48;88.08;97274.03;6157377;23;20028;-62
2023/02/28 08:59:20;;;;;;;23.25;12.23;;;;;;;6.57;87.97;97278.28;6157833;23;20021;-62
2023/02/28 09:01:48;;;;;;;20.70;11.77;;;;;;;6.64;87.88;97279.06;6157836;23;20018;-62
2023/02/28 09:04:16;;;;;;;25.05;13.25;;;;;;;6.69;87.00;97282.50;6157191;23;20108;-62
2023/02/28 09:06:44;;;;;;;23.38;11.98;;;;;;;6.70;86.73;97276.41;6157392;23;20076;-62
2023/02/28 09:09:11;;;;;;;23.88;12.80;;;;;;;6.68;86.41;97276.41;6157167;23;20445;-62
2023/02/28 09:11:40;;;;;;;21.85;12.90;;;;;;;6.67;86.41;97277.31;6157151;23;20356;-62
2023/02/28 09:14:09;;;;;;;25.80;12.25;;;;;;;6.76;86.46;97278.94;6157601;23;20478;-62
2023/02/28 09:16:36;;;;;;;25.27;12.88;;;;;;;6.76;85.85;97281.56;6157045;23;20022;-62
2023/02/28 09:19:03;;;;;;;19.65;11.48;;;;;;;6.79;85.93;97278.03;6157176;23;20021;-62
2023/02/28 09:21:30;;;;;;;26.23;11.88;;;;;;;6.74;86.18;97272.88;6157152;23;20191;-62
2023/02/28 09:23:58;;;;;;;24.38;12.32;;;;;;;6.74;86.96;97267.69;6157379;23;20028;-63
2023/02/28 09:26:27;;;;;;;18.92;11.15;;;;;;;6.80;87.06;97287.56;6156989;23;20076;-63
2023/02/28 09:28:56;;;;;;;25.80;11.55;;;;;;;6.74;86.75;97285.06;6157218;23;20039;-62
2023/02/28 09:31:27;;;;;;;23.45;11.82;;;;;;;6.74;86.84;97295.47;6157270;23;20029;-62
2023/02/28 09:33:56;;;;;;;23.80;12.45;;;;;;;6.70;87.48;97289.41;6156373;23;20376;-62
2023/02/28 09:36:26;;;;;;;19.80;12.75;;;;;;;6.70;87.46;97285.09;6157291;23;20084;-62
2023/02/28 09:38:53;;;;;;;27.08;12.55;;;;;;;6.74;87.58;97292.84;6157253;23;20025;-62
2023/02/28 09:41:25;;;;;;;22.48;12.07;;;;;;;6.79;86.79;97281.53;6156896;23;20021;-63
2023/02/28 09:43:56;;;;;;;30.73;13.25;;;;;;;6.79;87.29;97291.91;6157330;23;20344;-63
2023/02/28 09:46:33;;;;;;;22.48;11.68;;;;;;;6.91;86.98;97288.31;6157178;23;20025;-62
2023/02/28 09:49:03;;;;;;;21.98;12.73;;;;;;;6.94;86.49;97287.41;6157167;23;20028;-63
2023/02/28 09:51:42;;;;;;;23.77;12.70;;;;;;;7.02;86.51;97282.13;6157089;23;20035;-62
2023/02/28 09:54:18;;;;;;;20.45;12.18;;;;;;;7.02;85.65;97277.81;6156760;23;20463;-62
2023/02/28 09:56:52;;;;;;;19.17;11.27;;;;;;;6.96;86.21;97267.47;6156829;23;20055;-62
2023/02/28 09:59:32;;;;;;;22.02;11.85;;;;;;;7.04;86.52;97264.75;6157061;23;20036;-62
2023/02/28 10:02:12;;;;;;;20.08;11.43;;;;;;;7.10;85.74;97262.06;6157268;23;20029;-62
2023/02/28 10:04:51;;;;;;;22.08;12.27;;;;;;;7.05;85.40;97254.31;6156804;23;20021;-63
2023/02/28 10:07:38;;;;;;;21.20;11.05;;;;;;;7.01;86.10;97249.19;6157188;23;20091;-62
2023/02/28 10:10:17;;;;;;;26.50;12.13;;;;;;;7.06;86.30;97239.59;6157197;23;20026;-62
2023/02/28 10:12:48;;;;;;;21.92;13.35;;;;;;;7.10;87.10;97243.84;6156684;23;20072;-62
2023/02/28 10:15:18;;;;;;;27.92;14.57;;;;;;;7.18;86.62;97235.97;6156533;23;20045;-62
2023/02/28 10:17:50;;;;;;;25.97;11.97;;;;;;;7.25;85.06;97239.34;6156529;23;20476;-63
2023/02/28 10:20:23;;;;;;;21.17;11.57;;;;;;;7.27;85.31;97221.97;6156462;23;20030;-62
2023/02/28 10:22:57;;;;;;;22.02;11.88;;;;;;;7.33;84.71;97207.13;6157016;23;20025;-62
2023/02/28 10:25:27;;;;;;;31.02;11.98;;;;;;;7.26;84.70;97213.31;6156519;23;20063;-62
2023/02/28 10:27:55;;;;;;;20.60;9.13;;;;;;;7.31;85.16;97213.22;6156611;23;20029;-63
2023/02/28 10:30:23;;;;;;;20.33;11.63;;;;;;;7.44;84.18;97212.16;6156529;23;20024;-62
2023/02/28 10:32:54;;;;;;;22.27;9.50;;;;;;;7.46;83.26;97213.00;6156790;23;20029;-63
2023/02/28 10:35:23;;;;;;;23.17;10.98;;;;;;;7.45;83.37;97207.81;6156434;23;20021;-63
2023/02/28 10:37:54;;;;;;;19.95;11.43;;;;;;;7.54;83.38;97206.81;6156723;23;20060;-63
2023/02/28 10:40:33;;;;;;;29.75;12.23;;;;;;;7.64;83.37;97203.19;6156177;23;20032;-63
2023/02/28 10:43:02;;;;;;;26.60;10.00;;;;;;;7.65;81.95;97201.47;6156419;23;20580;-62
2023/02/28 10:45:31;;;;;;;31.20;13.45;;;;;;;7.65;82.41;97191.03;6156123;23;20404;-63
2023/02/28 10:48:07;;;;;;;32.13;17.30;;;;;;;7.79;82.55;97198.63;6156298;23;20029;-62
2023/02/28 10:50:43;;;;;;;25.23;10.90;;;;;;;7.93;81.30;97206.22;6156585;23;20017;-63
2023/02/28 10:53:32;;;;;;;29.10;11.88;;;;;;;7.94;80.64;97200.97;6156301;23;20028;-63
2023/02/28 10:56:02;;;;;;;29.55;12.95;;;;;;;8.06;80.08;97197.31;6156198;23;20026;-63
2023/02/28 10:58:31;;;;;;;27.17;11.73;;;;;;;8.08;79.86;97197.28;6156510;23;20017;-63
2023/02/28 11:01:00;;;;;;;29.83;10.60;;;;;;;8.05;80.24;97192.13;6156725;23;20017;-62
2023/02/28 11:03:35;;;;;;;29.35;12.15;;;;;;;8.16;79.90;97186.72;6156125;23;20029;-63
2023/02/28 11:06:08;;;;;;;20.65;9.80;;;;;;;8.24;79.64;97187.44;6156598;23;20018;-63
2023/02/28 11:08:49;;;;;;;29.55;11.60;;;;;;;8.17;79.40;97189.31;6156439;23;20017;-63
2023/02/28 11:11:17;;;;;;;32.40;11.38;;;;;;;8.05;79.52;97192.13;6156540;23;20021;-63
2023/02/28 11:13:47;;;;;;;26.08;11.82;;;;;;;8.02;80.07;97182.63;6156046;23;20471;-63
2023/02/28 11:16:16;;;;;;;28.77;11.90;;;;;;;8.01;80.34;97164.41;6156071;23;20467;-63
2023/02/28 11:18:50;;;;;;;23.45;10.57;;;;;;;8.11;79.71;97180.72;6155871;23;20025;-63
2023/02/28 11:21:23;;;;;;;25.23;10.93;;;;;;;8.10;79.61;97177.28;6156465;23;20053;-63
2023/02/28 11:23:56;;;;;;;25.90;10.32;;;;;;;8.15;78.86;97182.38;6156501;23;20021;-63
2023/02/28 11:26:43;;;;;;;25.83;11.15;;;;;;;8.28;78.18;97178.66;6156210;23;20017;-63
2023/02/28 11:29:20;;;;;;;12.88;9.45;;;;;;;8.11;76.88;97180.72;6156039;23;20017;-63
2023/02/28 11:32:17;;;;;;;15.13;10.02;;;;;;;7.87;77.69;97177.66;6156385;23;20033;-62
2023/02/28 11:34:47;;;;;;;14.82;10.40;;;;;;;7.67;78.35;97174.50;6154563;23;20021;-62
2023/02/28 11:37:18;;;;;;;12.65;9.90;;;;;;;7.64;78.69;97171.06;6156124;23;20022;-62
2023/02/28 11:39:48;;;;;;;;;;;;;;;7.55;79.10;97172.09;6156534;23;20025;-63
2023/02/28 11:42:40;;;;;;;13.98;9.50;;;;;;;7.49;79.49;97175.66;6156021;23;19944;-63
2023/02/28 11:45:22;;;;;;;16.55;9.43;;;;;;;7.45;79.95;97171.38;6155899;23;20021;-63